createdAt,value
2023-05-05T00:00:50.963Z,547.00
2023-05-05T00:01:50.969Z,546.00
2023-05-05T00:02:50.945Z,548.00
2023-05-05T00:03:51.068Z,548.00
2023-05-05T00:04:50.967Z,550.00
2023-05-05T00:05:50.934Z,550.00
2023-05-05T00:06:50.961Z,549.00
2023-05-05T00:07:50.926Z,550.00
2023-05-05T00:08:50.941Z,553.00
2023-05-05T00:09:50.932Z,553.00
2023-05-05T00:10:50.924Z,550.00
2023-05-05T00:11:50.940Z,548.00
2023-05-05T00:12:50.974Z,546.00
2023-05-05T00:13:50.922Z,547.00
2023-05-05T00:14:50.903Z,548.00
2023-05-05T00:15:50.912Z,550.00
2023-05-05T00:16:50.916Z,550.00
2023-05-05T00:17:50.958Z,548.00
2023-05-05T00:18:50.930Z,543.00
2023-05-05T00:19:50.899Z,541.00
2023-05-05T00:20:50.944Z,540.00
2023-05-05T00:21:50.881Z,540.00
2023-05-05T00:22:50.890Z,541.00
2023-05-05T00:23:50.918Z,539.00
2023-05-05T00:24:50.889Z,540.00
2023-05-05T00:25:50.906Z,541.00
2023-05-05T00:26:50.865Z,541.00
2023-05-05T00:27:50.866Z,539.00
2023-05-05T00:28:50.860Z,540.00
2023-05-05T00:29:50.866Z,540.00
2023-05-05T00:30:50.956Z,543.00
2023-05-05T00:31:50.858Z,545.00
2023-05-05T00:32:50.906Z,542.00
2023-05-05T00:33:50.893Z,542.00
2023-05-05T00:34:50.864Z,540.00
2023-05-05T00:35:50.864Z,541.00
2023-05-05T00:36:50.864Z,541.00
2023-05-05T00:37:50.866Z,541.00
2023-05-05T00:38:50.850Z,541.00
2023-05-05T00:39:50.869Z,540.00
2023-05-05T00:40:50.894Z,538.00
2023-05-05T00:41:50.845Z,539.00
2023-05-05T00:42:50.956Z,541.00
2023-05-05T00:43:50.835Z,542.00
2023-05-05T00:44:50.832Z,543.00
2023-05-05T00:45:50.847Z,540.00
2023-05-05T00:46:50.922Z,541.00
2023-05-05T00:47:50.868Z,543.00
2023-05-05T00:48:50.908Z,546.00
2023-05-05T00:49:50.834Z,548.00
2023-05-05T00:50:50.880Z,551.00
2023-05-05T00:51:50.829Z,549.00
2023-05-05T00:52:50.825Z,550.00
2023-05-05T00:53:50.819Z,548.00
2023-05-05T00:54:50.829Z,548.00
2023-05-05T00:55:50.847Z,547.00
2023-05-05T00:56:50.841Z,546.00
2023-05-05T00:57:50.854Z,546.00
2023-05-05T00:58:50.854Z,543.00
2023-05-05T00:59:50.820Z,543.00
2023-05-05T01:00:50.831Z,543.00
2023-05-05T01:01:50.845Z,542.00
2023-05-05T01:02:50.969Z,541.00
2023-05-05T01:03:50.924Z,543.00
2023-05-05T01:04:50.821Z,543.00
2023-05-05T01:05:50.827Z,545.00
2023-05-05T01:06:50.860Z,543.00
2023-05-05T01:07:50.845Z,544.00
2023-05-05T01:08:50.846Z,542.00
2023-05-05T01:10:00.864Z,542.00
2023-05-05T01:10:51.825Z,540.00
2023-05-05T01:11:50.802Z,538.00
2023-05-05T01:12:50.855Z,537.00
2023-05-05T01:13:50.799Z,538.00
2023-05-05T01:14:50.792Z,539.00
2023-05-05T01:15:50.836Z,539.00
2023-05-05T01:16:50.778Z,540.00
2023-05-05T01:17:50.800Z,540.00
2023-05-05T01:18:50.767Z,539.00
2023-05-05T01:19:50.749Z,537.00
2023-05-05T01:20:50.753Z,540.00
2023-05-05T01:21:50.721Z,543.00
2023-05-05T01:22:50.743Z,543.00
2023-05-05T01:23:50.733Z,543.00
2023-05-05T01:24:50.713Z,544.00
2023-05-05T01:25:50.714Z,545.00
2023-05-05T01:26:50.690Z,543.00
2023-05-05T01:27:50.689Z,541.00
2023-05-05T01:28:50.697Z,542.00
2023-05-05T01:29:50.681Z,542.00
2023-05-05T01:30:50.684Z,542.00
2023-05-05T01:31:50.724Z,542.00
2023-05-05T01:32:50.711Z,542.00
2023-05-05T01:33:50.649Z,546.00
2023-05-05T01:34:50.656Z,547.00
2023-05-05T01:35:50.637Z,548.00
2023-05-05T01:36:50.632Z,547.00
2023-05-05T01:37:50.660Z,546.00
2023-05-05T01:38:50.622Z,545.00
2023-05-05T01:39:50.595Z,546.00
2023-05-05T01:40:50.614Z,548.00
2023-05-05T01:41:50.581Z,548.00
2023-05-05T01:42:50.610Z,549.00
2023-05-05T01:43:50.569Z,549.00
2023-05-05T01:44:50.614Z,549.00
2023-05-05T01:45:50.565Z,548.00
2023-05-05T01:46:50.568Z,546.00
2023-05-05T01:47:50.560Z,546.00
2023-05-05T01:48:50.567Z,546.00
2023-05-05T01:49:50.535Z,545.00
2023-05-05T01:50:50.536Z,542.00
2023-05-05T01:51:50.505Z,541.00
2023-05-05T01:52:50.518Z,542.00
2023-05-05T01:53:50.504Z,542.00
2023-05-05T01:54:50.535Z,542.00
2023-05-05T01:55:50.488Z,546.00
2023-05-05T01:56:50.492Z,546.00
2023-05-05T01:57:50.482Z,545.00
2023-05-05T01:58:50.497Z,543.00
2023-05-05T01:59:50.457Z,544.00
2023-05-05T02:00:50.458Z,543.00
2023-05-05T02:01:50.463Z,543.00
2023-05-05T02:02:50.533Z,543.00
2023-05-05T02:03:50.420Z,543.00
2023-05-05T02:04:50.415Z,547.00
2023-05-05T02:05:50.422Z,547.00
2023-05-05T02:06:50.426Z,548.00
2023-05-05T02:07:50.398Z,547.00
2023-05-05T02:08:50.409Z,548.00
2023-05-05T02:09:50.391Z,548.00
2023-05-05T02:10:50.417Z,549.00
2023-05-05T02:11:50.374Z,550.00
2023-05-05T02:12:50.402Z,550.00
2023-05-05T02:13:50.387Z,550.00
2023-05-05T02:14:50.407Z,552.00
2023-05-05T02:15:50.390Z,555.00
2023-05-05T02:16:50.335Z,554.00
2023-05-05T02:17:50.342Z,553.00
2023-05-05T02:18:50.347Z,554.00
2023-05-05T02:19:50.313Z,548.00
2023-05-05T02:20:50.326Z,548.00
2023-05-05T02:21:50.294Z,549.00
2023-05-05T02:22:50.291Z,549.00
2023-05-05T02:23:50.290Z,548.00
2023-05-05T02:24:50.298Z,548.00
2023-05-05T02:25:50.282Z,547.00
2023-05-05T02:26:50.290Z,546.00
2023-05-05T02:27:50.322Z,547.00
2023-05-05T02:28:50.337Z,548.00
2023-05-05T02:29:50.324Z,544.00
2023-05-05T02:30:50.306Z,544.00
2023-05-05T02:31:50.337Z,544.00
2023-05-05T02:32:50.314Z,544.00
2023-05-05T02:33:50.318Z,544.00
2023-05-05T02:34:50.316Z,545.00
2023-05-05T02:35:50.305Z,547.00
2023-05-05T02:36:50.319Z,549.00
2023-05-05T02:37:50.311Z,549.00
2023-05-05T02:38:50.309Z,551.00
2023-05-05T02:39:50.312Z,549.00
2023-05-05T02:40:50.348Z,548.00
2023-05-05T02:41:50.318Z,543.00
2023-05-05T02:42:50.485Z,542.00
2023-05-05T02:43:50.318Z,542.00
2023-05-05T02:44:50.316Z,544.00
2023-05-05T02:45:50.346Z,540.00
2023-05-05T02:46:50.397Z,539.00
2023-05-05T02:47:50.496Z,540.00
2023-05-05T02:48:50.351Z,539.00
2023-05-05T02:49:50.353Z,539.00
2023-05-05T02:50:50.383Z,540.00
2023-05-05T02:51:50.360Z,540.00
2023-05-05T02:52:50.380Z,542.00
2023-05-05T02:53:50.379Z,540.00
2023-05-05T02:54:50.388Z,541.00
2023-05-05T02:55:50.383Z,539.00
2023-05-05T02:56:50.399Z,538.00
2023-05-05T02:57:50.405Z,537.00
2023-05-05T02:58:50.387Z,540.00
2023-05-05T02:59:50.425Z,540.00
2023-05-05T03:00:50.428Z,539.00
2023-05-05T03:01:50.492Z,540.00
2023-05-05T03:02:50.498Z,542.00
2023-05-05T03:03:50.591Z,543.00
2023-05-05T03:04:50.418Z,542.00
2023-05-05T03:05:50.449Z,543.00
2023-05-05T03:06:50.436Z,546.00
2023-05-05T03:07:50.481Z,545.00
2023-05-05T03:08:50.479Z,544.00
2023-05-05T03:09:50.471Z,548.00
2023-05-05T03:10:50.495Z,547.00
2023-05-05T03:11:50.471Z,548.00
2023-05-05T03:12:50.525Z,548.00
2023-05-05T03:13:50.478Z,548.00
2023-05-05T03:14:50.482Z,548.00
2023-05-05T03:15:50.642Z,546.00
2023-05-05T03:16:50.537Z,542.00
2023-05-05T03:17:50.608Z,542.00
2023-05-05T03:18:50.498Z,541.00
2023-05-05T03:19:50.503Z,542.00
2023-05-05T03:20:50.514Z,541.00
2023-05-05T03:21:50.518Z,544.00
2023-05-05T03:22:50.563Z,547.00
2023-05-05T03:23:50.539Z,546.00
2023-05-05T03:24:50.544Z,546.00
2023-05-05T03:25:50.596Z,546.00
2023-05-05T03:26:50.601Z,543.00
2023-05-05T03:27:50.612Z,543.00
2023-05-05T03:28:50.620Z,544.00
2023-05-05T03:29:50.596Z,544.00
2023-05-05T03:30:50.669Z,546.00
2023-05-05T03:31:50.682Z,545.00
2023-05-05T03:32:50.699Z,543.00
2023-05-05T03:33:50.637Z,540.00
2023-05-05T03:34:50.634Z,538.00
2023-05-05T03:35:50.678Z,539.00
2023-05-05T03:36:50.676Z,540.00
2023-05-05T03:37:50.658Z,540.00
2023-05-05T03:38:50.663Z,539.00
2023-05-05T03:39:50.680Z,538.00
2023-05-05T03:40:50.712Z,540.00
2023-05-05T03:41:50.680Z,538.00
2023-05-05T03:42:50.697Z,534.00
2023-05-05T03:43:50.679Z,534.00
2023-05-05T03:44:50.690Z,534.00
2023-05-05T03:45:50.753Z,536.00
2023-05-05T03:46:50.687Z,536.00
2023-05-05T03:47:50.762Z,537.00
2023-05-05T03:48:50.696Z,536.00
2023-05-05T03:49:50.707Z,535.00
2023-05-05T03:50:50.721Z,532.00
2023-05-05T03:51:50.716Z,532.00
2023-05-05T03:52:50.733Z,532.00
2023-05-05T03:53:50.735Z,529.00
2023-05-05T03:54:50.746Z,528.00
2023-05-05T03:55:50.739Z,528.00
2023-05-05T03:56:50.786Z,529.00
2023-05-05T03:57:50.753Z,530.00
2023-05-05T03:58:50.770Z,529.00
2023-05-05T03:59:50.765Z,530.00
2023-05-05T04:00:50.782Z,529.00
2023-05-05T04:01:50.786Z,530.00
2023-05-05T04:02:50.866Z,530.00
2023-05-05T04:03:50.865Z,529.00
2023-05-05T04:04:50.813Z,528.00
2023-05-05T04:05:50.827Z,529.00
2023-05-05T04:06:50.860Z,531.00
2023-05-05T04:07:50.842Z,533.00
2023-05-05T04:08:50.854Z,532.00
2023-05-05T04:09:50.901Z,530.00
2023-05-05T04:10:50.851Z,530.00
2023-05-05T04:11:50.860Z,528.00
2023-05-05T04:12:50.914Z,526.00
2023-05-05T04:13:50.896Z,527.00
2023-05-05T04:14:50.867Z,526.00
2023-05-05T04:15:50.933Z,529.00
2023-05-05T04:16:50.897Z,531.00
2023-05-05T04:17:50.991Z,531.00
2023-05-05T04:18:50.903Z,530.00
2023-05-05T04:19:50.919Z,529.00
2023-05-05T04:20:50.944Z,529.00
2023-05-05T04:21:50.939Z,527.00
2023-05-05T04:22:52.588Z,528.00
2023-05-05T04:23:50.956Z,529.00
2023-05-05T04:24:50.958Z,531.00
2023-05-05T04:25:50.981Z,531.00
2023-05-05T04:26:50.982Z,534.00
2023-05-05T04:27:51.422Z,534.00
2023-05-05T04:28:51.028Z,534.00
2023-05-05T04:29:50.992Z,534.00
2023-05-05T04:30:51.013Z,533.00
2023-05-05T04:31:51.048Z,532.00
2023-05-05T04:32:51.135Z,534.00
2023-05-05T04:33:51.036Z,530.00
2023-05-05T04:34:51.039Z,530.00
2023-05-05T04:35:51.073Z,529.00
2023-05-05T04:36:51.069Z,529.00
2023-05-05T04:37:51.109Z,531.00
2023-05-05T04:38:51.121Z,533.00
2023-05-05T04:39:51.087Z,532.00
2023-05-05T04:40:51.119Z,533.00
2023-05-05T04:41:51.107Z,535.00
2023-05-05T04:42:51.094Z,534.00
2023-05-05T04:43:51.091Z,536.00
2023-05-05T04:44:51.126Z,534.00
2023-05-05T04:45:51.097Z,532.00
2023-05-05T04:46:51.251Z,532.00
2023-05-05T04:47:51.178Z,530.00
2023-05-05T04:48:51.134Z,531.00
2023-05-05T04:49:51.177Z,532.00
2023-05-05T04:50:51.152Z,533.00
2023-05-05T04:51:51.191Z,533.00
2023-05-05T04:52:52.637Z,530.00
2023-05-05T04:53:51.201Z,533.00
2023-05-05T04:54:51.222Z,532.00
2023-05-05T04:55:51.207Z,533.00
2023-05-05T04:56:51.203Z,531.00
2023-05-05T04:57:51.255Z,531.00
2023-05-05T04:58:51.216Z,532.00
2023-05-05T04:59:51.239Z,532.00
2023-05-05T05:00:51.231Z,534.00
2023-05-05T05:01:51.290Z,532.00
2023-05-05T05:02:51.328Z,533.00
2023-05-05T05:03:51.302Z,534.00
2023-05-05T05:04:51.277Z,529.00
2023-05-05T05:05:51.285Z,528.00
2023-05-05T05:06:51.299Z,526.00
2023-05-05T05:07:51.302Z,525.00
2023-05-05T05:08:51.319Z,527.00
2023-05-05T05:09:51.331Z,524.00
2023-05-05T05:10:51.318Z,526.00
2023-05-05T05:11:51.329Z,524.00
2023-05-05T05:12:51.374Z,522.00
2023-05-05T05:13:51.351Z,521.00
2023-05-05T05:14:51.334Z,522.00
2023-05-05T05:15:51.339Z,522.00
2023-05-05T05:16:51.430Z,526.00
2023-05-05T05:17:51.593Z,525.00
2023-05-05T05:18:51.357Z,525.00
2023-05-05T05:19:51.356Z,528.00
2023-05-05T05:20:51.368Z,529.00
2023-05-05T05:21:51.404Z,527.00
2023-05-05T05:22:51.408Z,525.00
2023-05-05T05:23:51.387Z,524.00
2023-05-05T05:24:51.388Z,525.00
2023-05-05T05:25:51.433Z,523.00
2023-05-05T05:26:51.461Z,525.00
2023-05-05T05:28:02.273Z,525.00
2023-05-05T05:28:52.411Z,522.00
2023-05-05T05:29:51.396Z,522.00
2023-05-05T05:30:51.493Z,523.00
2023-05-05T05:31:51.445Z,524.00
2023-05-05T05:32:51.479Z,522.00
2023-05-05T05:33:51.380Z,522.00
2023-05-05T05:34:51.363Z,523.00
2023-05-05T05:35:51.354Z,525.00
2023-05-05T05:36:51.388Z,534.00
2023-05-05T05:37:51.348Z,550.00
2023-05-05T05:38:51.414Z,572.00
2023-05-05T05:39:51.370Z,624.00
2023-05-05T05:40:51.332Z,636.00
2023-05-05T05:41:51.933Z,715.00
2023-05-05T05:42:51.306Z,765.00
2023-05-05T05:43:51.391Z,800.00
2023-05-05T05:44:51.275Z,848.00
2023-05-05T05:45:51.309Z,889.00
2023-05-05T05:46:51.333Z,945.00
2023-05-05T05:47:51.314Z,954.00
2023-05-05T05:48:51.379Z,948.00
2023-05-05T05:49:51.240Z,951.00
2023-05-05T05:50:51.260Z,953.00
2023-05-05T05:51:51.221Z,948.00
2023-05-05T05:52:51.218Z,949.00
2023-05-05T05:53:51.232Z,943.00
2023-05-05T05:54:51.254Z,937.00
2023-05-05T05:55:51.297Z,933.00
2023-05-05T05:56:51.343Z,932.00
2023-05-05T05:57:51.354Z,932.00
2023-05-05T05:58:51.428Z,934.00
2023-05-05T05:59:51.458Z,933.00
2023-05-05T06:00:51.450Z,929.00
2023-05-05T06:01:51.457Z,930.00
2023-05-05T06:02:51.592Z,926.00
2023-05-05T06:03:51.533Z,921.00
2023-05-05T06:04:51.616Z,923.00
2023-05-05T06:05:51.555Z,924.00
2023-05-05T06:06:51.943Z,925.00
2023-05-05T06:07:51.612Z,925.00
2023-05-05T06:08:51.601Z,922.00
2023-05-05T06:09:51.578Z,919.00
2023-05-05T06:10:51.654Z,922.00
2023-05-05T06:11:51.626Z,918.00
2023-05-05T06:12:51.683Z,917.00
2023-05-05T06:13:51.637Z,916.00
2023-05-05T06:14:51.615Z,914.00
2023-05-05T06:15:51.671Z,912.00
2023-05-05T06:16:51.610Z,913.00
2023-05-05T06:17:51.665Z,914.00
2023-05-05T06:18:51.605Z,916.00
2023-05-05T06:19:52.978Z,917.00
2023-05-05T06:20:51.596Z,918.00
2023-05-05T06:21:51.608Z,914.00
2023-05-05T06:22:51.574Z,915.00
2023-05-05T06:23:51.592Z,915.00
2023-05-05T06:24:51.572Z,911.00
2023-05-05T06:25:51.568Z,911.00
2023-05-05T06:26:51.547Z,910.00
2023-05-05T06:27:51.538Z,908.00
2023-05-05T06:28:51.955Z,909.00
2023-05-05T06:29:51.517Z,907.00
2023-05-05T06:30:51.511Z,908.00
2023-05-05T06:31:51.540Z,908.00
2023-05-05T06:32:51.544Z,907.00
2023-05-05T06:33:51.506Z,905.00
2023-05-05T06:34:51.494Z,901.00
2023-05-05T06:35:51.524Z,899.00
2023-05-05T06:36:51.488Z,902.00
2023-05-05T06:37:51.460Z,903.00
2023-05-05T06:38:51.962Z,905.00
2023-05-05T06:39:51.517Z,956.00
2023-05-05T06:40:51.428Z,1032.00
2023-05-05T06:41:51.419Z,1056.00
2023-05-05T06:42:51.409Z,1085.00
2023-05-05T06:43:51.403Z,1130.00
2023-05-05T06:44:51.412Z,1210.00
2023-05-05T06:45:51.399Z,1252.00
2023-05-05T06:46:51.468Z,1264.00
2023-05-05T06:47:51.408Z,1296.00
2023-05-05T06:48:51.388Z,1320.00
2023-05-05T06:49:51.391Z,1336.00
2023-05-05T06:50:51.388Z,1352.00
2023-05-05T06:51:51.410Z,1413.00
2023-05-05T06:52:51.434Z,1426.00
2023-05-05T06:53:51.329Z,1429.00
2023-05-05T06:54:51.352Z,1422.00
2023-05-05T06:55:51.319Z,1417.00
2023-05-05T06:56:51.308Z,1417.00
2023-05-05T06:57:51.329Z,1424.00
2023-05-05T06:58:51.337Z,1225.00
2023-05-05T06:59:51.295Z,1156.00
2023-05-05T07:00:51.324Z,1054.00
2023-05-05T07:01:51.296Z,907.00
2023-05-05T07:02:51.396Z,830.00
2023-05-05T07:03:51.299Z,812.00
2023-05-05T07:04:51.246Z,814.00
2023-05-05T07:05:51.257Z,824.00
2023-05-05T07:06:51.267Z,839.00
2023-05-05T07:07:51.242Z,860.00
2023-05-05T07:08:51.300Z,910.00
2023-05-05T07:09:51.223Z,926.00
2023-05-05T07:10:51.222Z,947.00
2023-05-05T07:11:51.233Z,972.00
2023-05-05T07:12:51.237Z,991.00
2023-05-05T07:13:51.188Z,1014.00
2023-05-05T07:14:51.372Z,1032.00
2023-05-05T07:15:51.184Z,1041.00
2023-05-05T07:16:51.257Z,1046.00
2023-05-05T07:17:51.231Z,1055.00
2023-05-05T07:18:51.215Z,1074.00
2023-05-05T07:19:51.149Z,1094.00
2023-05-05T07:20:51.137Z,1109.00
2023-05-05T07:21:51.132Z,1116.00
2023-05-05T07:22:51.162Z,1129.00
2023-05-05T07:23:51.149Z,1147.00
2023-05-05T07:24:51.765Z,1157.00
2023-05-05T07:25:51.180Z,1151.00
2023-05-05T07:26:51.134Z,1117.00
2023-05-05T07:27:51.144Z,1043.00
2023-05-05T07:28:51.481Z,1048.00
2023-05-05T07:29:51.155Z,1052.00
2023-05-05T07:30:51.191Z,1075.00
2023-05-05T07:31:51.302Z,1088.00
2023-05-05T07:32:51.294Z,1100.00
2023-05-05T07:33:51.481Z,1113.00
2023-05-05T07:34:51.286Z,958.00
2023-05-05T07:35:52.015Z,931.00
2023-05-05T07:36:51.426Z,942.00
2023-05-05T07:37:51.284Z,953.00
2023-05-05T07:38:51.305Z,851.00
2023-05-05T07:39:51.327Z,842.00
2023-05-05T07:40:51.393Z,802.00
2023-05-05T07:41:51.367Z,800.00
2023-05-05T07:42:51.366Z,711.00
2023-05-05T07:43:51.381Z,697.00
2023-05-05T07:44:51.414Z,685.00
2023-05-05T07:45:51.470Z,675.00
2023-05-05T07:46:51.484Z,636.00
2023-05-05T07:47:51.495Z,630.00
2023-05-05T07:48:51.501Z,620.00
2023-05-05T07:49:51.512Z,595.00
2023-05-05T07:50:51.518Z,583.00
2023-05-05T07:51:51.555Z,573.00
2023-05-05T07:52:56.333Z,554.00
2023-05-05T07:53:52.560Z,551.00
2023-05-05T07:54:51.515Z,551.00
2023-05-05T07:55:51.521Z,561.00
2023-05-05T07:56:51.593Z,557.00
2023-05-05T07:57:51.482Z,550.00
2023-05-05T07:58:51.541Z,553.00
2023-05-05T07:59:51.500Z,553.00
2023-05-05T08:00:51.506Z,553.00
2023-05-05T08:01:53.125Z,550.00
2023-05-05T08:02:51.592Z,549.00
2023-05-05T08:03:51.577Z,547.00
2023-05-05T08:04:51.442Z,549.00
2023-05-05T08:05:51.860Z,549.00
2023-05-05T08:06:51.443Z,546.00
2023-05-05T08:07:51.537Z,552.00
2023-05-05T08:08:51.465Z,556.00
2023-05-05T08:09:51.414Z,556.00
2023-05-05T08:10:51.450Z,553.00
2023-05-05T08:11:51.404Z,561.00
2023-05-05T08:12:51.564Z,565.00
2023-05-05T08:13:51.376Z,571.00
2023-05-05T08:14:51.501Z,586.00
2023-05-05T08:15:51.422Z,597.00
2023-05-05T08:16:51.366Z,609.00
2023-05-05T08:17:51.474Z,634.00
2023-05-05T08:18:51.365Z,642.00
2023-05-05T08:19:51.360Z,648.00
2023-05-05T08:20:51.362Z,663.00
2023-05-05T08:21:51.334Z,680.00
2023-05-05T08:22:51.361Z,695.00
2023-05-05T08:23:51.307Z,764.00
2023-05-05T08:24:51.327Z,728.00
2023-05-05T08:25:51.318Z,699.00
2023-05-05T08:26:51.410Z,711.00
2023-05-05T08:27:51.419Z,717.00
2023-05-05T08:28:51.384Z,709.00
2023-05-05T08:29:51.286Z,699.00
2023-05-05T08:30:51.278Z,692.00
2023-05-05T08:31:51.294Z,687.00
2023-05-05T08:32:51.300Z,685.00
2023-05-05T08:33:51.271Z,679.00
2023-05-05T08:34:51.271Z,672.00
2023-05-05T08:35:51.239Z,667.00
2023-05-05T08:36:51.233Z,667.00
2023-05-05T08:37:51.256Z,667.00
2023-05-05T08:38:51.221Z,668.00
2023-05-05T08:39:51.514Z,671.00
2023-05-05T08:40:51.215Z,672.00
2023-05-05T08:41:51.218Z,672.00
2023-05-05T08:42:51.217Z,681.00
2023-05-05T08:43:51.210Z,786.00
2023-05-05T08:44:51.581Z,810.00
2023-05-05T08:45:51.189Z,831.00
2023-05-05T08:46:51.204Z,871.00
2023-05-05T08:47:51.224Z,950.00
2023-05-05T08:48:51.166Z,997.00
2023-05-05T08:49:51.154Z,1017.00
2023-05-05T08:50:51.174Z,1040.00
2023-05-05T08:51:51.141Z,1069.00
2023-05-05T08:52:51.369Z,1097.00
2023-05-05T08:53:51.120Z,1126.00
2023-05-05T08:54:51.117Z,1171.00
2023-05-05T08:55:51.133Z,1202.00
2023-05-05T08:56:51.099Z,1224.00
2023-05-05T08:57:51.153Z,1243.00
2023-05-05T08:58:51.088Z,1263.00
2023-05-05T08:59:51.086Z,1288.00
2023-05-05T09:00:51.262Z,1304.00
2023-05-05T09:01:51.055Z,1334.00
2023-05-05T09:02:51.128Z,1354.00
2023-05-05T09:03:51.048Z,1380.00
2023-05-05T09:04:51.056Z,1410.00
2023-05-05T09:05:51.030Z,1439.00
2023-05-05T09:06:51.033Z,1444.00
2023-05-05T09:07:51.084Z,1464.00
2023-05-05T09:08:51.146Z,1487.00
2023-05-05T09:09:51.209Z,1516.00
2023-05-05T09:10:51.240Z,1550.00
2023-05-05T09:11:51.290Z,1568.00
2023-05-05T09:12:51.603Z,1564.00
2023-05-05T09:13:51.398Z,1537.00
2023-05-05T09:14:51.432Z,1480.00
2023-05-05T09:15:51.568Z,1496.00
2023-05-05T09:16:51.677Z,1518.00
2023-05-05T09:17:51.596Z,1613.00
2023-05-05T09:18:51.617Z,1606.00
2023-05-05T09:19:51.708Z,1614.00
2023-05-05T09:20:51.713Z,1636.00
2023-05-05T09:21:51.770Z,1668.00
2023-05-05T09:22:51.782Z,1675.00
2023-05-05T09:23:51.829Z,1683.00
2023-05-05T09:24:51.861Z,1694.00
2023-05-05T09:25:51.894Z,1711.00
2023-05-05T09:26:51.941Z,1719.00
2023-05-05T09:27:51.966Z,1722.00
2023-05-05T09:28:52.045Z,1726.00
2023-05-05T09:29:52.060Z,1759.00
2023-05-05T09:30:52.070Z,1735.00
2023-05-05T09:31:52.064Z,1505.00
2023-05-05T09:32:52.240Z,1496.00
2023-05-05T09:33:52.168Z,1458.00
2023-05-05T09:34:52.550Z,1443.00
2023-05-05T09:35:52.212Z,1440.00
2023-05-05T09:36:52.249Z,1444.00
2023-05-05T09:37:52.288Z,1454.00
2023-05-05T09:38:52.317Z,1459.00
2023-05-05T09:39:52.360Z,1469.00
2023-05-05T09:40:52.394Z,1467.00
2023-05-05T09:41:52.415Z,1464.00
2023-05-05T09:42:52.469Z,1458.00
2023-05-05T09:43:52.715Z,1447.00
2023-05-05T09:44:52.535Z,1440.00
2023-05-05T09:45:52.672Z,1433.00
2023-05-05T09:46:52.712Z,1421.00
2023-05-05T09:47:56.520Z,1416.00
2023-05-05T09:48:53.695Z,1411.00
2023-05-05T09:49:52.650Z,1402.00
2023-05-05T09:50:52.658Z,1392.00
2023-05-05T09:51:52.620Z,1380.00
2023-05-05T09:52:52.633Z,1373.00
2023-05-05T09:53:52.620Z,1364.00
2023-05-05T09:54:52.721Z,1355.00
2023-05-05T09:55:52.644Z,1342.00
2023-05-05T09:56:52.580Z,1327.00
2023-05-05T09:57:52.595Z,1316.00
2023-05-05T09:58:52.678Z,1305.00
2023-05-05T09:59:52.715Z,1299.00
2023-05-05T10:00:52.773Z,1293.00
2023-05-05T10:01:52.890Z,1283.00
2023-05-05T10:02:52.914Z,1274.00
2023-05-05T10:03:53.002Z,1266.00
2023-05-05T10:04:53.082Z,1261.00
2023-05-05T10:05:53.072Z,1252.00
2023-05-05T10:06:53.147Z,1242.00
2023-05-05T10:07:53.205Z,1216.00
2023-05-05T10:08:53.254Z,1204.00
2023-05-05T10:09:53.310Z,1201.00
2023-05-05T10:10:53.383Z,1197.00
2023-05-05T10:11:53.412Z,1190.00
2023-05-05T10:12:53.519Z,1181.00
2023-05-05T10:13:53.550Z,1172.00
2023-05-05T10:14:53.633Z,1168.00
2023-05-05T10:15:53.705Z,1161.00
2023-05-05T10:16:53.694Z,1144.00
2023-05-05T10:18:06.117Z,1129.00
2023-05-05T10:18:54.749Z,1124.00
2023-05-05T10:19:53.750Z,1121.00
2023-05-05T10:20:53.809Z,1115.00
2023-05-05T10:21:53.740Z,1107.00
2023-05-05T10:22:53.719Z,1092.00
2023-05-05T10:23:53.751Z,1085.00
2023-05-05T10:24:53.778Z,1082.00
2023-05-05T10:25:53.826Z,1086.00
2023-05-05T10:26:53.871Z,1097.00
2023-05-05T10:27:54.034Z,1117.00
2023-05-05T10:28:53.946Z,1106.00
2023-05-05T10:29:53.958Z,1116.00
2023-05-05T10:30:53.974Z,1111.00
2023-05-05T10:31:54.069Z,1104.00
2023-05-05T10:33:03.464Z,1087.00
2023-05-05T10:33:55.168Z,1032.00
2023-05-05T10:34:54.080Z,1109.00
2023-05-05T10:35:54.051Z,1141.00
2023-05-05T10:36:54.257Z,1155.00
2023-05-05T10:37:54.004Z,1127.00
2023-05-05T10:38:53.986Z,1099.00
2023-05-05T10:39:53.988Z,1074.00
2023-05-05T10:40:53.990Z,1069.00
2023-05-05T10:41:53.983Z,969.00
2023-05-05T10:42:54.082Z,995.00
2023-05-05T10:43:53.960Z,992.00
2023-05-05T10:44:54.141Z,987.00
2023-05-05T10:45:54.084Z,972.00
2023-05-05T10:46:53.933Z,967.00
2023-05-05T10:47:53.947Z,969.00
2023-05-05T10:48:53.981Z,985.00
2023-05-05T10:49:54.070Z,1058.00
2023-05-05T10:50:53.927Z,1046.00
2023-05-05T10:51:54.012Z,1039.00
2023-05-05T10:52:54.098Z,1009.00
2023-05-05T10:53:54.057Z,1001.00
2023-05-05T10:54:54.045Z,989.00
2023-05-05T10:55:54.044Z,842.00
2023-05-05T10:56:54.088Z,823.00
2023-05-05T10:57:54.089Z,740.00
2023-05-05T10:59:00.287Z,713.00
2023-05-05T10:59:55.131Z,692.00
2023-05-05T11:00:54.156Z,700.00
2023-05-05T11:01:54.101Z,727.00
2023-05-05T11:02:54.142Z,765.00
2023-05-05T11:03:54.133Z,779.00
2023-05-05T11:04:54.102Z,646.00
2023-05-05T11:05:54.089Z,612.00
2023-05-05T11:06:54.077Z,615.00
2023-05-05T11:07:54.106Z,628.00
2023-05-05T11:08:54.115Z,639.00
2023-05-05T11:09:54.066Z,642.00
2023-05-05T11:10:54.087Z,654.00
2023-05-05T11:11:54.033Z,645.00
2023-05-05T11:12:54.108Z,667.00
2023-05-05T11:13:54.010Z,685.00
2023-05-05T11:14:54.063Z,687.00
2023-05-05T11:15:54.130Z,683.00
2023-05-05T11:16:54.039Z,687.00
2023-05-05T11:17:54.100Z,695.00
2023-05-05T11:18:53.995Z,699.00
2023-05-05T11:19:53.983Z,687.00
2023-05-05T11:20:53.975Z,673.00
2023-05-05T11:21:53.990Z,666.00
2023-05-05T11:22:54.001Z,663.00
2023-05-05T11:23:54.069Z,662.00
2023-05-05T11:24:54.077Z,666.00
2023-05-05T11:25:54.048Z,672.00
2023-05-05T11:26:54.076Z,675.00
2023-05-05T11:27:54.102Z,676.00
2023-05-05T11:28:54.159Z,679.00
2023-05-05T11:29:54.210Z,678.00
2023-05-05T11:30:54.229Z,678.00
2023-05-05T11:31:54.218Z,677.00
2023-05-05T11:32:54.265Z,673.00
2023-05-05T11:33:54.274Z,673.00
2023-05-05T11:34:54.333Z,672.00
2023-05-05T11:35:54.353Z,670.00
2023-05-05T11:36:54.427Z,671.00
2023-05-05T11:37:54.420Z,669.00
2023-05-05T11:38:54.485Z,669.00
2023-05-05T11:39:54.513Z,671.00
2023-05-05T11:40:54.566Z,673.00
2023-05-05T11:41:54.599Z,671.00
2023-05-05T11:42:54.639Z,672.00
2023-05-05T11:43:54.709Z,671.00
2023-05-05T11:44:54.736Z,669.00
2023-05-05T11:45:54.837Z,668.00
2023-05-05T11:46:54.837Z,668.00
2023-05-05T11:47:55.059Z,668.00
2023-05-05T11:48:54.949Z,669.00
2023-05-05T11:49:54.995Z,669.00
2023-05-05T11:50:55.029Z,669.00
2023-05-05T11:51:55.088Z,669.00
2023-05-05T11:52:55.127Z,669.00
2023-05-05T11:53:56.015Z,671.00
2023-05-05T11:54:55.252Z,669.00
2023-05-05T11:55:55.306Z,667.00
2023-05-05T11:56:55.346Z,667.00
2023-05-05T11:57:55.421Z,663.00
2023-05-05T11:58:55.487Z,663.00
2023-05-05T11:59:55.498Z,664.00
2023-05-05T12:00:55.580Z,663.00
2023-05-05T12:01:55.609Z,662.00
2023-05-05T12:02:55.831Z,661.00
2023-05-05T12:03:55.881Z,660.00
2023-05-05T12:04:55.910Z,657.00
2023-05-05T12:05:55.817Z,659.00
2023-05-05T12:06:55.882Z,658.00
2023-05-05T12:07:55.938Z,658.00
2023-05-05T12:08:55.989Z,657.00
2023-05-05T12:09:56.055Z,654.00
2023-05-05T12:10:56.122Z,654.00
2023-05-05T12:11:56.163Z,654.00
2023-05-05T12:12:56.436Z,653.00
2023-05-05T12:13:56.274Z,654.00
2023-05-05T12:14:56.348Z,651.00
2023-05-05T12:15:56.378Z,649.00
2023-05-05T12:16:56.454Z,647.00
2023-05-05T12:17:56.592Z,648.00
2023-05-05T12:18:56.566Z,648.00
2023-05-05T12:19:56.606Z,650.00
2023-05-05T12:20:56.685Z,650.00
2023-05-05T12:21:56.713Z,651.00
2023-05-05T12:22:56.804Z,653.00
2023-05-05T12:23:56.835Z,654.00